PWSweather.com
Personal Weather Stations
Station Observations
SELKIRK1
Ontario, Selkirk, ON N0A 1P0

OntarioSelkirk, ON N0A 1P0

Lat: 42.8083652, Lon: -79.94971040000001

Elevation: 583

Station Type: Acurite 5 in 1

http://gavinsurf.com

High Low Average
Temperature 70.9°F21.6°C 56.0°F13.3°C 66.0°F18.9°C
Dew Point 69.7°F20.9°C 49.0°F9.4°C 62.4°F16.9°C
Winds 13.8 mph 22.2 kmh 1.2 mph 1.9 kmh 6.0 mph SW9.7 kmh SW
Wind Gusts 15.0 mph24.1 kmh 2.3 mph3.7 kmh 8.0 mph12.9 kmh
Humidity 99% 68% 89%
Pressure 31.80 in1076.9 mb 31.80 in1076.9 mb -
Precipitation 0.01 in0.3 mm - -
Hour Temp Dew Point Humidity Winds Wind Gusts Pressure Precip Precip Rate Daily Precip Total
12:00 AM 69.5°F20.8°C 69.2°F20.7°C 99% 6.9 mph SW11.1 kmh SW 6.9 mph11.1 kmh 31.80 in1076.9 mb - 0.00 in0.0 mm 0.00 in0.0 mm
12:10 AM 69.5°F20.8°C 69.2°F20.7°C 99% 8.1 mph SW13.0 kmh SW 8.1 mph13.0 kmh 31.80 in1076.9 mb - 0.00 in0.0 mm 0.00 in0.0 mm
12:15 AM 69.6°F20.9°C 69.3°F20.7°C 99% 6.9 mph SSW11.1 kmh SSW 8.1 mph13.0 kmh 31.80 in1076.9 mb - 0.00 in0.0 mm 0.00 in0.0 mm
12:20 AM 69.6°F20.9°C 69.3°F20.7°C 99% 8.1 mph SSW13.0 kmh SSW 6.9 mph11.1 kmh 31.80 in1076.9 mb - 0.00 in0.0 mm 0.00 in0.0 mm
12:25 AM 69.6°F20.9°C 69.3°F20.7°C 99% 8.1 mph SW13.0 kmh SW 8.1 mph13.0 kmh 31.80 in1076.9 mb - 0.00 in0.0 mm 0.00 in0.0 mm
12:30 AM 69.6°F20.9°C 69.3°F20.7°C 99% 8.1 mph WSW13.0 kmh WSW 9.2 mph14.8 kmh 31.80 in1076.9 mb - 0.00 in0.0 mm 0.00 in0.0 mm
12:35 AM 69.6°F20.9°C 69.3°F20.7°C 99% 8.1 mph SW13.0 kmh SW 9.2 mph14.8 kmh 31.80 in1076.9 mb - 0.00 in0.0 mm 0.00 in0.0 mm
12:40 AM 69.6°F20.9°C 69.3°F20.7°C 99% 6.9 mph SSW11.1 kmh SSW 6.9 mph11.1 kmh 31.80 in1076.9 mb - 0.00 in0.0 mm 0.00 in0.0 mm
12:45 AM 69.6°F20.9°C 69.3°F20.7°C 99% 8.1 mph SW13.0 kmh SW 9.2 mph14.8 kmh 31.80 in1076.9 mb - 0.00 in0.0 mm 0.00 in0.0 mm
12:50 AM 69.6°F20.9°C 69.3°F20.7°C 99% 9.2 mph SW14.8 kmh SW 10.4 mph16.7 kmh 31.80 in1076.9 mb - 0.00 in0.0 mm 0.00 in0.0 mm
12:55 AM 69.6°F20.9°C 69.3°F20.7°C 99% 9.2 mph SW14.8 kmh SW 10.4 mph16.7 kmh 31.80 in1076.9 mb - 0.00 in0.0 mm 0.00 in0.0 mm
01:00 AM 69.6°F20.9°C 69.3°F20.7°C 99% 9.2 mph SW14.8 kmh SW 10.4 mph16.7 kmh 31.80 in1076.9 mb - 0.00 in0.0 mm 0.00 in0.0 mm
01:10 AM 69.8°F21.0°C 69.5°F20.8°C 99% 12.7 mph SW20.4 kmh SW 13.8 mph22.2 kmh 31.80 in1076.9 mb - 0.00 in0.0 mm 0.00 in0.0 mm
01:15 AM 70.0°F21.1°C 69.7°F20.9°C 99% 10.4 mph SW16.7 kmh SW 11.5 mph18.5 kmh 31.80 in1076.9 mb - 0.00 in0.0 mm 0.00 in0.0 mm
01:20 AM 70.0°F21.1°C 69.7°F20.9°C 99% 10.4 mph SW16.7 kmh SW 11.5 mph18.5 kmh 31.80 in1076.9 mb - 0.00 in0.0 mm 0.00 in0.0 mm
01:25 AM 70.0°F21.1°C 69.7°F20.9°C 99% 10.4 mph SSW16.7 kmh SSW 10.4 mph16.7 kmh 31.80 in1076.9 mb - 0.00 in0.0 mm 0.00 in0.0 mm
01:30 AM 70.0°F21.1°C 69.7°F20.9°C 99% 9.2 mph SW14.8 kmh SW 10.4 mph16.7 kmh 31.80 in1076.9 mb - 0.00 in0.0 mm 0.00 in0.0 mm
01:35 AM 69.8°F21.0°C 69.5°F20.8°C 99% 11.5 mph SSW18.5 kmh SSW 11.5 mph18.5 kmh 31.80 in1076.9 mb - 0.00 in0.0 mm 0.00 in0.0 mm
01:40 AM 69.8°F21.0°C 69.5°F20.8°C 99% 10.4 mph SW16.7 kmh SW 11.5 mph18.5 kmh 31.80 in1076.9 mb - 0.00 in0.0 mm 0.00 in0.0 mm
01:45 AM 69.8°F21.0°C 69.5°F20.8°C 99% 10.4 mph SSW16.7 kmh SSW 11.5 mph18.5 kmh 31.80 in1076.9 mb - 0.00 in0.0 mm 0.00 in0.0 mm
01:50 AM 69.8°F21.0°C 69.5°F20.8°C 99% 10.4 mph SW16.7 kmh SW 10.4 mph16.7 kmh 31.80 in1076.9 mb - 0.00 in0.0 mm 0.00 in0.0 mm
01:55 AM 69.8°F21.0°C 69.5°F20.8°C 99% 10.4 mph SW16.7 kmh SW 11.5 mph18.5 kmh 31.80 in1076.9 mb - 0.00 in0.0 mm 0.00 in0.0 mm
02:00 AM 69.8°F21.0°C 69.5°F20.8°C 99% 9.2 mph SW14.8 kmh SW 11.5 mph18.5 kmh 31.80 in1076.9 mb - 0.00 in0.0 mm 0.00 in0.0 mm
02:10 AM 69.8°F21.0°C 69.5°F20.8°C 99% 10.4 mph SW16.7 kmh SW 12.7 mph20.4 kmh 31.80 in1076.9 mb - 0.00 in0.0 mm 0.00 in0.0 mm
02:15 AM 69.8°F21.0°C 69.5°F20.8°C 99% 10.4 mph SW16.7 kmh SW 10.4 mph16.7 kmh 31.80 in1076.9 mb - 0.00 in0.0 mm 0.00 in0.0 mm
02:20 AM 69.8°F21.0°C 69.5°F20.8°C 99% 10.4 mph SW16.7 kmh SW 10.4 mph16.7 kmh 31.80 in1076.9 mb - 0.00 in0.0 mm 0.00 in0.0 mm
02:25 AM 69.8°F21.0°C 69.5°F20.8°C 99% 10.4 mph SW16.7 kmh SW 11.5 mph18.5 kmh 31.80 in1076.9 mb - 0.00 in0.0 mm 0.00 in0.0 mm
02:30 AM 69.8°F21.0°C 69.5°F20.8°C 99% 10.4 mph SW16.7 kmh SW 11.5 mph18.5 kmh 31.80 in1076.9 mb - 0.00 in0.0 mm 0.00 in0.0 mm
02:35 AM 69.8°F21.0°C 69.5°F20.8°C 99% 10.4 mph SSW16.7 kmh SSW 11.5 mph18.5 kmh 31.80 in1076.9 mb - 0.00 in0.0 mm 0.00 in0.0 mm
02:40 AM 69.8°F21.0°C 69.5°F20.8°C 99% 10.4 mph SW16.7 kmh SW 11.5 mph18.5 kmh 31.80 in1076.9 mb - 0.00 in0.0 mm 0.00 in0.0 mm
02:45 AM 69.8°F21.0°C 69.5°F20.8°C 99% 10.4 mph SW16.7 kmh SW 11.5 mph18.5 kmh 31.80 in1076.9 mb - 0.00 in0.0 mm 0.00 in0.0 mm
02:50 AM 69.8°F21.0°C 69.5°F20.8°C 99% 9.2 mph SW14.8 kmh SW 10.4 mph16.7 kmh 31.80 in1076.9 mb - 0.00 in0.0 mm 0.00 in0.0 mm
02:55 AM 69.8°F21.0°C 69.5°F20.8°C 99% 11.5 mph SW18.5 kmh SW 13.8 mph22.2 kmh 31.80 in1076.9 mb - 0.00 in0.0 mm 0.00 in0.0 mm
03:00 AM 69.6°F20.9°C 69.3°F20.7°C 99% 13.8 mph SW22.2 kmh SW 15.0 mph24.1 kmh 31.80 in1076.9 mb - 0.00 in0.0 mm 0.00 in0.0 mm
03:10 AM 69.5°F20.8°C 69.2°F20.7°C 99% 6.9 mph SSW11.1 kmh SSW 10.4 mph16.7 kmh 31.80 in1076.9 mb - 0.00 in0.0 mm 0.00 in0.0 mm
03:15 AM 69.3°F20.7°C 69.0°F20.6°C 99% 3.5 mph S5.6 kmh S 4.6 mph7.4 kmh 31.80 in1076.9 mb - 0.00 in0.0 mm 0.00 in0.0 mm
03:20 AM 69.3°F20.7°C 69.0°F20.6°C 99% 6.9 mph SW11.1 kmh SW 9.2 mph14.8 kmh 31.80 in1076.9 mb - 0.00 in0.0 mm 0.00 in0.0 mm
03:25 AM 69.3°F20.7°C 69.0°F20.6°C 99% 6.9 mph SSW11.1 kmh SSW 5.8 mph9.3 kmh 31.80 in1076.9 mb - 0.00 in0.0 mm 0.00 in0.0 mm
03:30 AM 69.3°F20.7°C 69.0°F20.6°C 99% 8.1 mph WSW13.0 kmh WSW 8.1 mph13.0 kmh 31.80 in1076.9 mb - 0.00 in0.0 mm 0.00 in0.0 mm
03:35 AM 69.3°F20.7°C 69.0°F20.6°C 99% 4.6 mph WSW7.4 kmh WSW 5.8 mph9.3 kmh 31.80 in1076.9 mb - 0.00 in0.0 mm 0.00 in0.0 mm
03:40 AM 69.2°F20.7°C 68.9°F20.5°C 99% 5.8 mph S9.3 kmh S 9.2 mph14.8 kmh 31.80 in1076.9 mb - 0.00 in0.0 mm 0.00 in0.0 mm
03:45 AM 69.1°F20.6°C 68.8°F20.4°C 99% 5.8 mph WSW9.3 kmh WSW 6.9 mph11.1 kmh 31.80 in1076.9 mb - 0.00 in0.0 mm 0.00 in0.0 mm
03:50 AM 68.9°F20.5°C 68.6°F20.3°C 99% 5.8 mph WSW9.3 kmh WSW 6.9 mph11.1 kmh 31.80 in1076.9 mb - 0.00 in0.0 mm 0.00 in0.0 mm
03:55 AM 68.7°F20.4°C 68.4°F20.2°C 99% 4.6 mph WSW7.4 kmh WSW 5.8 mph9.3 kmh 31.80 in1076.9 mb - 0.00 in0.0 mm 0.00 in0.0 mm
04:00 AM 68.6°F20.3°C 68.3°F20.2°C 99% 6.9 mph SW11.1 kmh SW 9.2 mph14.8 kmh 31.80 in1076.9 mb - 0.00 in0.0 mm 0.00 in0.0 mm
04:10 AM 68.6°F20.3°C 68.3°F20.2°C 99% 5.8 mph SW9.3 kmh SW 5.8 mph9.3 kmh 31.80 in1076.9 mb - 0.00 in0.0 mm 0.00 in0.0 mm
04:15 AM 68.6°F20.3°C 68.3°F20.2°C 99% 4.6 mph SSW7.4 kmh SSW 5.8 mph9.3 kmh 31.80 in1076.9 mb - 0.00 in0.0 mm 0.00 in0.0 mm
04:20 AM 68.4°F20.2°C 68.1°F20.1°C 99% 4.6 mph SW7.4 kmh SW 5.8 mph9.3 kmh 31.80 in1076.9 mb - 0.00 in0.0 mm 0.00 in0.0 mm
04:25 AM 68.2°F20.1°C 67.9°F19.9°C 99% 4.6 mph SW7.4 kmh SW 5.8 mph9.3 kmh 31.80 in1076.9 mb - 0.00 in0.0 mm 0.00 in0.0 mm
04:30 AM 68.0°F20.0°C 67.7°F19.8°C 99% 5.8 mph SSW9.3 kmh SSW 5.8 mph9.3 kmh 31.80 in1076.9 mb - 0.00 in0.0 mm 0.00 in0.0 mm
04:35 AM 68.0°F20.0°C 67.7°F19.8°C 99% 5.8 mph SSW9.3 kmh SSW 5.8 mph9.3 kmh 31.80 in1076.9 mb - 0.00 in0.0 mm 0.00 in0.0 mm
04:40 AM 68.0°F20.0°C 67.7°F19.8°C 99% 6.9 mph SW11.1 kmh SW 8.1 mph13.0 kmh 31.80 in1076.9 mb - 0.01 in0.3 mm 0.01 in0.3 mm
04:45 AM 67.8°F19.9°C 67.5°F19.7°C 99% 6.9 mph SSW11.1 kmh SSW 6.9 mph11.1 kmh 31.80 in1076.9 mb - 0.01 in0.3 mm 0.01 in0.3 mm
04:50 AM 67.8°F19.9°C 67.5°F19.7°C 99% 6.9 mph SW11.1 kmh SW 6.9 mph11.1 kmh 31.80 in1076.9 mb - 0.01 in0.3 mm 0.01 in0.3 mm
04:55 AM 67.8°F19.9°C 67.5°F19.7°C 99% 5.8 mph SW9.3 kmh SW 5.8 mph9.3 kmh 31.80 in1076.9 mb - 0.01 in0.3 mm 0.01 in0.3 mm
05:00 AM 67.8°F19.9°C 67.5°F19.7°C 99% 4.6 mph WSW7.4 kmh WSW 5.8 mph9.3 kmh 31.80 in1076.9 mb - 0.01 in0.3 mm 0.01 in0.3 mm
05:10 AM 67.8°F19.9°C 67.5°F19.7°C 99% 5.8 mph SW9.3 kmh SW 5.8 mph9.3 kmh 31.80 in1076.9 mb - 0.01 in0.3 mm 0.01 in0.3 mm
05:15 AM 67.8°F19.9°C 67.5°F19.7°C 99% 5.8 mph SW9.3 kmh SW 5.8 mph9.3 kmh 31.80 in1076.9 mb - 0.01 in0.3 mm 0.01 in0.3 mm
05:20 AM 67.8°F19.9°C 67.5°F19.7°C 99% 6.9 mph SW11.1 kmh SW 8.1 mph13.0 kmh 31.80 in1076.9 mb - 0.01 in0.3 mm 0.01 in0.3 mm
05:25 AM 68.0°F20.0°C 67.7°F19.8°C 99% 5.8 mph WSW9.3 kmh WSW 6.9 mph11.1 kmh 31.80 in1076.9 mb - 0.01 in0.3 mm 0.01 in0.3 mm
05:30 AM 68.0°F20.0°C 67.7°F19.8°C 99% 5.8 mph WSW9.3 kmh WSW 6.9 mph11.1 kmh 31.80 in1076.9 mb - 0.01 in0.3 mm 0.01 in0.3 mm
05:35 AM 68.0°F20.0°C 67.7°F19.8°C 99% 4.6 mph SW7.4 kmh SW 5.8 mph9.3 kmh 31.80 in1076.9 mb - 0.01 in0.3 mm 0.01 in0.3 mm
05:40 AM 68.0°F20.0°C 67.7°F19.8°C 99% 4.6 mph W7.4 kmh W 8.1 mph13.0 kmh 31.80 in1076.9 mb - 0.00 in0.0 mm 0.01 in0.3 mm
05:45 AM 68.0°F20.0°C 67.7°F19.8°C 99% 5.8 mph SW9.3 kmh SW 6.9 mph11.1 kmh 31.80 in1076.9 mb - 0.00 in0.0 mm 0.01 in0.3 mm
05:50 AM 68.1°F20.1°C 67.8°F19.9°C 99% 5.8 mph SW9.3 kmh SW 8.1 mph13.0 kmh 31.80 in1076.9 mb - 0.00 in0.0 mm 0.01 in0.3 mm
05:55 AM 68.2°F20.1°C 67.9°F19.9°C 99% 6.9 mph SW11.1 kmh SW 8.1 mph13.0 kmh 31.80 in1076.9 mb - 0.00 in0.0 mm 0.01 in0.3 mm
06:00 AM 68.2°F20.1°C 67.9°F19.9°C 99% 6.9 mph SW11.1 kmh SW 9.2 mph14.8 kmh 31.80 in1076.9 mb - 0.00 in0.0 mm 0.01 in0.3 mm
06:10 AM 68.2°F20.1°C 67.9°F19.9°C 99% 6.9 mph SW11.1 kmh SW 6.9 mph11.1 kmh 31.80 in1076.9 mb - 0.00 in0.0 mm 0.01 in0.3 mm
06:15 AM 68.2°F20.1°C 67.9°F19.9°C 99% 6.9 mph SW11.1 kmh SW 9.2 mph14.8 kmh 31.80 in1076.9 mb - 0.00 in0.0 mm 0.01 in0.3 mm
06:20 AM 68.2°F20.1°C 67.9°F19.9°C 99% 5.8 mph SSW9.3 kmh SSW 5.8 mph9.3 kmh 31.80 in1076.9 mb - 0.00 in0.0 mm 0.01 in0.3 mm
06:25 AM 68.2°F20.1°C 67.9°F19.9°C 99% 5.8 mph SSW9.3 kmh SSW 9.2 mph14.8 kmh 31.80 in1076.9 mb - 0.00 in0.0 mm 0.01 in0.3 mm
06:30 AM 68.2°F20.1°C 67.9°F19.9°C 99% 5.8 mph S9.3 kmh S 5.8 mph9.3 kmh 31.80 in1076.9 mb - 0.00 in0.0 mm 0.01 in0.3 mm
06:35 AM 68.2°F20.1°C 67.9°F19.9°C 99% 4.6 mph WSW7.4 kmh WSW 5.8 mph9.3 kmh 31.80 in1076.9 mb - 0.00 in0.0 mm 0.01 in0.3 mm
06:40 AM 68.2°F20.1°C 67.9°F19.9°C 99% 4.6 mph S7.4 kmh S 4.6 mph7.4 kmh 31.80 in1076.9 mb - 0.00 in0.0 mm 0.01 in0.3 mm
06:45 AM 68.0°F20.0°C 67.7°F19.8°C 99% 3.5 mph S5.6 kmh S 4.6 mph7.4 kmh 31.80 in1076.9 mb - 0.00 in0.0 mm 0.01 in0.3 mm
06:50 AM 67.8°F19.9°C 67.5°F19.7°C 99% 2.3 mph SW3.7 kmh SW 2.3 mph3.7 kmh 31.80 in1076.9 mb - 0.00 in0.0 mm 0.01 in0.3 mm
06:55 AM 67.8°F19.9°C 67.5°F19.7°C 99% 3.5 mph SW5.6 kmh SW 4.6 mph7.4 kmh 31.80 in1076.9 mb - 0.00 in0.0 mm 0.01 in0.3 mm
07:00 AM 67.8°F19.9°C 67.5°F19.7°C 99% 1.2 mph S1.9 kmh S 4.6 mph7.4 kmh 31.80 in1076.9 mb - 0.00 in0.0 mm 0.01 in0.3 mm
07:10 AM 67.8°F19.9°C 67.5°F19.7°C 99% 2.3 mph S3.7 kmh S 2.3 mph3.7 kmh 31.80 in1076.9 mb - 0.00 in0.0 mm 0.01 in0.3 mm
07:15 AM 67.7°F19.8°C 67.4°F19.7°C 99% 3.5 mph N5.6 kmh N 5.8 mph9.3 kmh 31.80 in1076.9 mb - 0.00 in0.0 mm 0.01 in0.3 mm
07:20 AM 67.7°F19.8°C 67.4°F19.7°C 99% 3.5 mph SW5.6 kmh SW 4.6 mph7.4 kmh 31.80 in1076.9 mb - 0.00 in0.0 mm 0.01 in0.3 mm
07:25 AM 67.7°F19.8°C 67.4°F19.7°C 99% 3.5 mph SW5.6 kmh SW 5.8 mph9.3 kmh 31.80 in1076.9 mb - 0.00 in0.0 mm 0.01 in0.3 mm
07:30 AM 67.7°F19.8°C 67.4°F19.7°C 99% 4.6 mph SSW7.4 kmh SSW 5.8 mph9.3 kmh 31.80 in1076.9 mb - 0.00 in0.0 mm 0.01 in0.3 mm
08:10 AM 69.1°F20.6°C 68.5°F20.3°C 98% 4.6 mph S7.4 kmh S 6.9 mph11.1 kmh 31.80 in1076.9 mb - 0.00 in0.0 mm 0.01 in0.3 mm
08:20 AM 69.9°F21.1°C 68.1°F20.1°C 94% 6.9 mph SSW11.1 kmh SSW 5.8 mph9.3 kmh 31.80 in1076.9 mb - 0.00 in0.0 mm 0.01 in0.3 mm
10:50 AM 70.9°F21.6°C 65.1°F18.4°C 82% 9.2 mph SW14.8 kmh SW 9.2 mph14.8 kmh 31.80 in1076.9 mb - 0.00 in0.0 mm 0.01 in0.3 mm
12:00 PM 70.2°F21.2°C 59.1°F15.1°C 68% 5.8 mph W9.3 kmh W 8.1 mph13.0 kmh 31.80 in1076.9 mb - 0.00 in0.0 mm 0.01 in0.3 mm
12:10 PM 70.1°F21.2°C 59.9°F15.5°C 70% 4.6 mph WSW7.4 kmh WSW 6.9 mph11.1 kmh 31.80 in1076.9 mb - 0.00 in0.0 mm 0.01 in0.3 mm
12:15 PM 69.6°F20.9°C 60.1°F15.6°C 72% 4.6 mph SE7.4 kmh SE 6.9 mph11.1 kmh 31.80 in1076.9 mb - 0.00 in0.0 mm 0.01 in0.3 mm
12:20 PM 69.7°F20.9°C 61.0°F16.1°C 74% 4.6 mph SW7.4 kmh SW 5.8 mph9.3 kmh 31.80 in1076.9 mb - 0.00 in0.0 mm 0.01 in0.3 mm
12:25 PM 69.7°F20.9°C 59.9°F15.5°C 71% 6.9 mph WSW11.1 kmh WSW 8.1 mph13.0 kmh 31.80 in1076.9 mb - 0.00 in0.0 mm 0.01 in0.3 mm
12:30 PM 69.5°F20.8°C 60.1°F15.6°C 72% 2.3 mph ENE3.7 kmh ENE 5.8 mph9.3 kmh 31.80 in1076.9 mb - 0.00 in0.0 mm 0.01 in0.3 mm
12:35 PM 70.3°F21.3°C 60.8°F16.0°C 72% 4.6 mph S7.4 kmh S 5.8 mph9.3 kmh 31.80 in1076.9 mb - 0.00 in0.0 mm 0.01 in0.3 mm
12:40 PM 69.8°F21.0°C 60.3°F15.7°C 72% 4.6 mph SE7.4 kmh SE 5.8 mph9.3 kmh 31.80 in1076.9 mb - 0.00 in0.0 mm 0.01 in0.3 mm
12:45 PM 69.6°F20.9°C 60.9°F16.1°C 74% 5.8 mph SW9.3 kmh SW 10.4 mph16.7 kmh 31.80 in1076.9 mb - 0.00 in0.0 mm 0.01 in0.3 mm
12:50 PM 68.7°F20.4°C 61.5°F16.4°C 78% 5.8 mph SE9.3 kmh SE 6.9 mph11.1 kmh 31.80 in1076.9 mb - 0.00 in0.0 mm 0.01 in0.3 mm
12:55 PM 67.8°F19.9°C 61.7°F16.5°C 81% 6.9 mph SW11.1 kmh SW 9.2 mph14.8 kmh 31.80 in1076.9 mb - 0.00 in0.0 mm 0.01 in0.3 mm
01:00 PM 67.7°F19.8°C 61.6°F16.4°C 81% 9.2 mph SSW14.8 kmh SSW 9.2 mph14.8 kmh 31.80 in1076.9 mb - 0.00 in0.0 mm 0.01 in0.3 mm
01:10 PM 65.9°F18.8°C 60.9°F16.1°C 84% 8.1 mph SW13.0 kmh SW 9.2 mph14.8 kmh 31.80 in1076.9 mb - 0.00 in0.0 mm 0.01 in0.3 mm
01:15 PM 65.9°F18.8°C 60.9°F16.1°C 84% 6.9 mph WSW11.1 kmh WSW 9.2 mph14.8 kmh 31.80 in1076.9 mb - 0.00 in0.0 mm 0.01 in0.3 mm
01:20 PM 65.9°F18.8°C 60.9°F16.1°C 84% 5.8 mph S9.3 kmh S 5.8 mph9.3 kmh 31.80 in1076.9 mb - 0.00 in0.0 mm 0.01 in0.3 mm
01:25 PM 65.5°F18.6°C 59.9°F15.5°C 82% 5.8 mph SW9.3 kmh SW 6.9 mph11.1 kmh 31.80 in1076.9 mb - 0.00 in0.0 mm 0.01 in0.3 mm
01:30 PM 65.1°F18.4°C 60.1°F15.6°C 84% 6.9 mph SW11.1 kmh SW 8.1 mph13.0 kmh 31.80 in1076.9 mb - 0.00 in0.0 mm 0.01 in0.3 mm
01:35 PM 65.1°F18.4°C 59.8°F15.4°C 83% 6.9 mph SW11.1 kmh SW 6.9 mph11.1 kmh 31.80 in1076.9 mb - 0.00 in0.0 mm 0.01 in0.3 mm
01:40 PM 65.1°F18.4°C 59.8°F15.4°C 83% 6.9 mph SW11.1 kmh SW 6.9 mph11.1 kmh 31.80 in1076.9 mb - 0.00 in0.0 mm 0.01 in0.3 mm
01:45 PM 64.2°F17.9°C 59.6°F15.3°C 85% 6.9 mph W11.1 kmh W 10.4 mph16.7 kmh 31.80 in1076.9 mb - 0.00 in0.0 mm 0.01 in0.3 mm
01:50 PM 64.1°F17.8°C 59.1°F15.1°C 84% 4.6 mph SW7.4 kmh SW 5.8 mph9.3 kmh 31.80 in1076.9 mb - 0.00 in0.0 mm 0.01 in0.3 mm
01:55 PM 64.1°F17.8°C 59.1°F15.1°C 84% 8.1 mph SW13.0 kmh SW 8.1 mph13.0 kmh 31.80 in1076.9 mb - 0.00 in0.0 mm 0.01 in0.3 mm
02:00 PM 64.1°F17.8°C 58.1°F14.5°C 81% 9.2 mph WSW14.8 kmh WSW 11.5 mph18.5 kmh 31.80 in1076.9 mb - 0.00 in0.0 mm 0.01 in0.3 mm
02:10 PM 64.8°F18.2°C 57.8°F14.3°C 78% 3.5 mph SW5.6 kmh SW 5.8 mph9.3 kmh 31.80 in1076.9 mb - 0.00 in0.0 mm 0.01 in0.3 mm
02:15 PM 64.6°F18.1°C 57.6°F14.2°C 78% 4.6 mph SSE7.4 kmh SSE 6.9 mph11.1 kmh 31.80 in1076.9 mb - 0.00 in0.0 mm 0.01 in0.3 mm
02:20 PM 64.9°F18.3°C 58.2°F14.6°C 79% 3.5 mph ENE5.6 kmh ENE 8.1 mph13.0 kmh 31.80 in1076.9 mb - 0.00 in0.0 mm 0.01 in0.3 mm
02:25 PM 64.8°F18.2°C 57.4°F14.1°C 77% 5.8 mph W9.3 kmh W 6.9 mph11.1 kmh 31.80 in1076.9 mb - 0.00 in0.0 mm 0.01 in0.3 mm
02:30 PM 64.7°F18.2°C 57.3°F14.1°C 77% 4.6 mph SW7.4 kmh SW 9.2 mph14.8 kmh 31.80 in1076.9 mb - 0.00 in0.0 mm 0.01 in0.3 mm
02:35 PM 64.6°F18.1°C 56.8°F13.8°C 76% 3.5 mph WSW5.6 kmh WSW 4.6 mph7.4 kmh 31.80 in1076.9 mb - 0.00 in0.0 mm 0.01 in0.3 mm
02:40 PM 64.4°F18.0°C 57.0°F13.9°C 77% 4.6 mph W7.4 kmh W 6.9 mph11.1 kmh 31.80 in1076.9 mb - 0.00 in0.0 mm 0.01 in0.3 mm
02:45 PM 64.4°F18.0°C 56.6°F13.7°C 76% 5.8 mph SW9.3 kmh SW 6.9 mph11.1 kmh 31.80 in1076.9 mb - 0.00 in0.0 mm 0.01 in0.3 mm
02:50 PM 64.2°F17.9°C 56.5°F13.6°C 76% 3.5 mph NW5.6 kmh NW 5.8 mph9.3 kmh 31.80 in1076.9 mb - 0.00 in0.0 mm 0.01 in0.3 mm
02:55 PM 64.3°F17.9°C 56.2°F13.4°C 75% 4.6 mph SSW7.4 kmh SSW 5.8 mph9.3 kmh 31.80 in1076.9 mb - 0.00 in0.0 mm 0.01 in0.3 mm
03:00 PM 64.2°F17.9°C 55.3°F12.9°C 73% 4.6 mph WSW7.4 kmh WSW 5.8 mph9.3 kmh 31.80 in1076.9 mb - 0.00 in0.0 mm 0.01 in0.3 mm
03:10 PM 64.1°F17.8°C 56.4°F13.6°C 76% 3.5 mph S5.6 kmh S 5.8 mph9.3 kmh 31.80 in1076.9 mb - 0.00 in0.0 mm 0.01 in0.3 mm
03:15 PM 64.1°F17.8°C 55.2°F12.9°C 73% 5.8 mph WNW9.3 kmh WNW 6.9 mph11.1 kmh 31.80 in1076.9 mb - 0.00 in0.0 mm 0.01 in0.3 mm
03:20 PM 63.7°F17.6°C 55.2°F12.9°C 74% 6.9 mph SW11.1 kmh SW 10.4 mph16.7 kmh 31.80 in1076.9 mb - 0.00 in0.0 mm 0.01 in0.3 mm
03:25 PM 63.7°F17.6°C 56.3°F13.5°C 77% 4.6 mph NW7.4 kmh NW 9.2 mph14.8 kmh 31.80 in1076.9 mb - 0.00 in0.0 mm 0.01 in0.3 mm
03:30 PM 63.5°F17.5°C 56.1°F13.4°C 77% 4.6 mph NW7.4 kmh NW 9.2 mph14.8 kmh 31.80 in1076.9 mb - 0.00 in0.0 mm 0.01 in0.3 mm
03:35 PM 63.3°F17.4°C 55.9°F13.3°C 77% 2.3 mph WSW3.7 kmh WSW 3.5 mph5.6 kmh 31.80 in1076.9 mb - 0.00 in0.0 mm 0.01 in0.3 mm
03:40 PM 63.3°F17.4°C 55.9°F13.3°C 77% 5.8 mph SW9.3 kmh SW 8.1 mph13.0 kmh 31.80 in1076.9 mb - 0.00 in0.0 mm 0.01 in0.3 mm
03:45 PM 63.0°F17.2°C 56.7°F13.7°C 80% 3.5 mph W5.6 kmh W 4.6 mph7.4 kmh 31.80 in1076.9 mb - 0.00 in0.0 mm 0.01 in0.3 mm
03:50 PM 63.0°F17.2°C 56.7°F13.7°C 80% 3.5 mph WSW5.6 kmh WSW 6.9 mph11.1 kmh 31.80 in1076.9 mb - 0.00 in0.0 mm 0.01 in0.3 mm
03:55 PM 63.0°F17.2°C 57.1°F13.9°C 81% 3.5 mph S5.6 kmh S 6.9 mph11.1 kmh 31.80 in1076.9 mb - 0.00 in0.0 mm 0.01 in0.3 mm
04:00 PM 62.8°F17.1°C 56.5°F13.6°C 80% 2.3 mph WSW3.7 kmh WSW 3.5 mph5.6 kmh 31.80 in1076.9 mb - 0.00 in0.0 mm 0.01 in0.3 mm
04:10 PM 62.6°F17.0°C 56.3°F13.5°C 80% 3.5 mph E5.6 kmh E 8.1 mph13.0 kmh 31.80 in1076.9 mb - 0.00 in0.0 mm 0.01 in0.3 mm
04:15 PM 62.0°F16.7°C 55.1°F12.8°C 78% 6.9 mph WNW11.1 kmh WNW 8.1 mph13.0 kmh 31.80 in1076.9 mb - 0.00 in0.0 mm 0.01 in0.3 mm
04:20 PM 61.5°F16.4°C 54.6°F12.6°C 78% 4.6 mph WNW7.4 kmh WNW 5.8 mph9.3 kmh 31.80 in1076.9 mb - 0.00 in0.0 mm 0.01 in0.3 mm
04:25 PM 61.2°F16.2°C 54.6°F12.6°C 79% 8.1 mph N13.0 kmh N 9.2 mph14.8 kmh 31.80 in1076.9 mb - 0.00 in0.0 mm 0.01 in0.3 mm
04:30 PM 61.0°F16.1°C 54.8°F12.7°C 80% 4.6 mph NW7.4 kmh NW 6.9 mph11.1 kmh 31.80 in1076.9 mb - 0.00 in0.0 mm 0.01 in0.3 mm
04:35 PM 60.6°F15.9°C 54.0°F12.2°C 79% 6.9 mph N11.1 kmh N 9.2 mph14.8 kmh 31.80 in1076.9 mb - 0.00 in0.0 mm 0.01 in0.3 mm
04:40 PM 60.6°F15.9°C 54.0°F12.2°C 79% 5.8 mph NNE9.3 kmh NNE 5.8 mph9.3 kmh 31.80 in1076.9 mb - 0.00 in0.0 mm 0.01 in0.3 mm
04:45 PM 60.1°F15.6°C 53.5°F11.9°C 79% 5.8 mph NNW9.3 kmh NNW 8.1 mph13.0 kmh 31.80 in1076.9 mb - 0.00 in0.0 mm 0.01 in0.3 mm
04:50 PM 59.9°F15.5°C 53.0°F11.7°C 78% 8.1 mph N13.0 kmh N 8.1 mph13.0 kmh 31.80 in1076.9 mb - 0.00 in0.0 mm 0.01 in0.3 mm
04:55 PM 59.7°F15.4°C 52.8°F11.6°C 78% 4.6 mph WNW7.4 kmh WNW 5.8 mph9.3 kmh 31.80 in1076.9 mb - 0.00 in0.0 mm 0.01 in0.3 mm
05:00 PM 59.6°F15.3°C 52.7°F11.5°C 78% 6.9 mph NW11.1 kmh NW 10.4 mph16.7 kmh 31.80 in1076.9 mb - 0.00 in0.0 mm 0.01 in0.3 mm
05:10 PM 59.4°F15.2°C 52.2°F11.2°C 77% 5.8 mph NNW9.3 kmh NNW 6.9 mph11.1 kmh 31.80 in1076.9 mb - 0.00 in0.0 mm 0.01 in0.3 mm
05:15 PM 59.2°F15.1°C 52.0°F11.1°C 77% 6.9 mph N11.1 kmh N 8.1 mph13.0 kmh 31.80 in1076.9 mb - 0.00 in0.0 mm 0.01 in0.3 mm
05:20 PM 59.0°F15.0°C 51.4°F10.8°C 76% 6.9 mph NW11.1 kmh NW 5.8 mph9.3 kmh 31.80 in1076.9 mb - 0.00 in0.0 mm 0.01 in0.3 mm
05:25 PM 59.0°F15.0°C 51.4°F10.8°C 76% 3.5 mph NW5.6 kmh NW 8.1 mph13.0 kmh 31.80 in1076.9 mb - 0.00 in0.0 mm 0.01 in0.3 mm
05:30 PM 58.8°F14.9°C 51.2°F10.7°C 76% 4.6 mph NNW7.4 kmh NNW 5.8 mph9.3 kmh 31.80 in1076.9 mb - 0.00 in0.0 mm 0.01 in0.3 mm
05:35 PM 58.8°F14.9°C 51.2°F10.7°C 76% 4.6 mph N7.4 kmh N 5.8 mph9.3 kmh 31.80 in1076.9 mb - 0.00 in0.0 mm 0.01 in0.3 mm
05:40 PM 58.7°F14.8°C 51.1°F10.6°C 76% 5.8 mph WNW9.3 kmh WNW 5.8 mph9.3 kmh 31.80 in1076.9 mb - 0.00 in0.0 mm 0.01 in0.3 mm
05:45 PM 58.5°F14.7°C 50.9°F10.5°C 76% 5.8 mph NW9.3 kmh NW 5.8 mph9.3 kmh 31.80 in1076.9 mb - 0.00 in0.0 mm 0.01 in0.3 mm
05:50 PM 58.3°F14.6°C 50.8°F10.4°C 76% 4.6 mph NNW7.4 kmh NNW 5.8 mph9.3 kmh 31.80 in1076.9 mb - 0.00 in0.0 mm 0.01 in0.3 mm
05:55 PM 58.3°F14.6°C 50.7°F10.4°C 76% 4.6 mph NW7.4 kmh NW 6.9 mph11.1 kmh 31.80 in1076.9 mb - 0.00 in0.0 mm 0.01 in0.3 mm
06:00 PM 58.1°F14.5°C 50.9°F10.5°C 77% 6.9 mph NNE11.1 kmh NNE 6.9 mph11.1 kmh 31.80 in1076.9 mb - 0.00 in0.0 mm 0.01 in0.3 mm
06:10 PM 57.6°F14.2°C 50.8°F10.4°C 78% 6.9 mph N11.1 kmh N 9.2 mph14.8 kmh 31.80 in1076.9 mb - 0.00 in0.0 mm 0.01 in0.3 mm
06:15 PM 57.4°F14.1°C 50.6°F10.3°C 78% 5.8 mph NNE9.3 kmh NNE 6.9 mph11.1 kmh 31.80 in1076.9 mb - 0.00 in0.0 mm 0.01 in0.3 mm
06:20 PM 57.4°F14.1°C 50.5°F10.3°C 78% 6.9 mph WNW11.1 kmh WNW 8.1 mph13.0 kmh 31.80 in1076.9 mb - 0.00 in0.0 mm 0.01 in0.3 mm
06:25 PM 57.0°F13.9°C 50.2°F10.1°C 78% 8.1 mph N13.0 kmh N 12.7 mph20.4 kmh 31.80 in1076.9 mb - 0.00 in0.0 mm 0.01 in0.3 mm
06:30 PM 56.9°F13.8°C 50.2°F10.1°C 78% 4.6 mph SW7.4 kmh SW 6.9 mph11.1 kmh 31.80 in1076.9 mb - 0.00 in0.0 mm 0.01 in0.3 mm
06:35 PM 56.9°F13.8°C 49.7°F9.8°C 77% 6.9 mph NW11.1 kmh NW 8.1 mph13.0 kmh 31.80 in1076.9 mb - 0.00 in0.0 mm 0.01 in0.3 mm
06:40 PM 56.7°F13.7°C 49.5°F9.7°C 77% 5.8 mph N9.3 kmh N 9.2 mph14.8 kmh 31.80 in1076.9 mb - 0.00 in0.0 mm 0.01 in0.3 mm
06:45 PM 56.5°F13.6°C 49.4°F9.7°C 77% 6.9 mph NNW11.1 kmh NNW 6.9 mph11.1 kmh 31.80 in1076.9 mb - 0.00 in0.0 mm 0.01 in0.3 mm
06:50 PM 56.3°F13.5°C 49.5°F9.7°C 78% 4.6 mph NW7.4 kmh NW 5.8 mph9.3 kmh 31.80 in1076.9 mb - 0.00 in0.0 mm 0.01 in0.3 mm
06:55 PM 56.1°F13.4°C 49.0°F9.4°C 77% 9.2 mph NNW14.8 kmh NNW 10.4 mph16.7 kmh 31.80 in1076.9 mb - 0.00 in0.0 mm 0.01 in0.3 mm
07:00 PM 56.0°F13.3°C 49.2°F9.6°C 78% 5.8 mph WNW9.3 kmh WNW 5.8 mph9.3 kmh 31.80 in1076.9 mb - 0.00 in0.0 mm 0.01 in0.3 mm